createdAt,value
2023-01-28T00:00:22.479Z,98237.86
2023-01-28T00:03:12.635Z,98232.86
2023-01-28T00:05:41.957Z,98238.45
2023-01-28T00:08:11.962Z,98240.48
2023-01-28T00:10:43.335Z,98242.92
2023-01-28T00:13:17.090Z,98244.67
2023-01-28T00:15:56.474Z,98244.48
2023-01-28T00:18:30.009Z,98246.73
2023-01-28T00:21:04.862Z,98247.34
2023-01-28T00:23:36.735Z,98244.61
2023-01-28T00:26:11.504Z,98245.11
2023-01-28T00:28:42.009Z,98247.25
2023-01-28T00:31:17.273Z,98248.40
2023-01-28T00:33:48.327Z,98254.06
2023-01-28T00:36:18.433Z,98255.40
2023-01-28T00:38:59.512Z,98258.11
2023-01-28T00:41:30.459Z,98254.20
2023-01-28T00:43:59.997Z,98256.25
2023-01-28T00:46:29.077Z,98256.83
2023-01-28T00:48:58.163Z,98260.70
2023-01-28T00:51:27.390Z,98259.52
2023-01-28T00:53:56.432Z,98260.25
2023-01-28T00:56:26.011Z,98262.90
2023-01-28T00:58:55.275Z,98268.46
2023-01-28T01:01:27.375Z,98265.40
2023-01-28T01:04:03.408Z,98266.60
2023-01-28T01:06:39.797Z,98265.57
2023-01-28T01:09:12.440Z,98260.05
2023-01-28T01:11:42.091Z,98257.05
2023-01-28T01:14:11.441Z,98261.14
2023-01-28T01:16:40.575Z,98261.49
2023-01-28T01:19:10.024Z,98262.57
2023-01-28T01:21:39.406Z,98265.57
2023-01-28T01:24:10.116Z,98266.00
2023-01-28T01:26:39.844Z,98268.04
2023-01-28T01:29:10.255Z,98270.23
2023-01-28T01:31:39.623Z,98273.84
2023-01-28T01:34:10.422Z,98280.39
2023-01-28T01:36:39.536Z,98279.30
2023-01-28T01:39:12.388Z,98276.17
2023-01-28T01:41:41.619Z,98281.77
2023-01-28T01:44:49.304Z,98285.77
2023-01-28T01:47:19.567Z,98287.34
2023-01-28T01:49:48.621Z,98294.14
2023-01-28T01:52:21.703Z,98292.09
2023-01-28T01:54:54.888Z,98292.81
2023-01-28T01:57:31.307Z,98293.66
2023-01-28T02:00:06.453Z,98294.83
2023-01-28T02:02:40.124Z,98286.03
2023-01-28T02:05:11.894Z,98286.11
2023-01-28T02:07:42.144Z,98284.26
2023-01-28T02:10:12.699Z,98286.55
2023-01-28T02:12:46.008Z,98284.18
2023-01-28T02:15:19.494Z,98280.23
2023-01-28T02:17:50.305Z,98279.75
2023-01-28T02:20:57.721Z,98277.98
2023-01-28T02:23:57.391Z,98280.99
2023-01-28T02:27:08.637Z,98281.61
2023-01-28T02:30:25.005Z,98283.98
2023-01-28T02:32:58.686Z,98282.77
2023-01-28T02:35:38.285Z,98282.94
2023-01-28T02:38:16.035Z,98283.33
2023-01-28T02:41:03.189Z,98280.03
2023-01-28T02:43:46.947Z,98286.10
2023-01-28T02:46:46.701Z,98287.39
2023-01-28T02:49:34.290Z,98283.91
2023-01-28T02:52:09.112Z,98288.70
2023-01-28T02:55:11.213Z,98284.40
2023-01-28T02:58:01.332Z,98289.06
2023-01-28T03:00:46.708Z,98283.38
2023-01-28T03:03:24.096Z,98275.96
2023-01-28T03:06:07.893Z,98279.92
2023-01-28T03:08:56.136Z,98275.27
2023-01-28T03:11:46.220Z,98277.17
2023-01-28T03:14:36.790Z,98283.98
2023-01-28T03:17:31.230Z,98283.75
2023-01-28T03:20:19.115Z,98283.24
2023-01-28T03:23:11.634Z,98280.99
2023-01-28T03:26:04.128Z,98281.46
2023-01-28T03:28:55.455Z,98272.86
2023-01-28T03:31:45.160Z,98263.84
2023-01-28T03:34:33.685Z,98262.63
2023-01-28T03:37:02.654Z,98263.89
2023-01-28T03:39:32.276Z,98270.52
2023-01-28T03:42:04.306Z,98282.08
2023-01-28T03:44:52.221Z,98287.91
2023-01-28T03:47:26.461Z,98289.13
2023-01-28T03:49:57.217Z,98293.64
2023-01-28T03:52:30.612Z,98291.92
2023-01-28T03:55:01.268Z,98287.70
2023-01-28T03:57:32.004Z,98290.20
2023-01-28T04:00:01.528Z,98286.77
2023-01-28T04:02:31.180Z,98287.77
2023-01-28T04:05:00.391Z,98295.45
2023-01-28T04:07:30.110Z,98295.91
2023-01-28T04:09:59.206Z,98299.09
2023-01-28T04:12:27.920Z,98302.65
2023-01-28T04:14:56.803Z,98294.54
2023-01-28T04:17:25.704Z,98298.05
2023-01-28T04:19:54.669Z,98295.22
2023-01-28T04:22:23.542Z,98294.08
2023-01-28T04:24:52.450Z,98293.34
2023-01-28T04:27:21.929Z,98293.06
2023-01-28T04:29:51.556Z,98295.05
2023-01-28T04:32:20.561Z,98297.29
2023-01-28T04:34:49.535Z,98296.11
2023-01-28T04:37:18.941Z,98292.23
2023-01-28T04:39:48.104Z,98293.80
2023-01-28T04:42:16.976Z,98294.54
2023-01-28T04:44:45.662Z,98296.98
2023-01-28T04:47:14.842Z,98292.95
2023-01-28T04:49:43.703Z,98293.94
2023-01-28T04:52:13.435Z,98300.74
2023-01-28T04:54:42.804Z,98302.91
2023-01-28T04:57:11.559Z,98307.10
2023-01-28T04:59:40.876Z,98315.38
2023-01-28T05:02:09.468Z,98318.32
2023-01-28T05:04:38.749Z,98320.08
2023-01-28T05:07:07.720Z,98325.68
2023-01-28T05:09:37.418Z,98328.17
2023-01-28T05:12:07.084Z,98332.48
2023-01-28T05:14:36.327Z,98333.94
2023-01-28T05:17:05.409Z,98333.99
2023-01-28T05:19:34.382Z,98341.02
2023-01-28T05:22:03.631Z,98338.95
2023-01-28T05:24:32.794Z,98338.33
2023-01-28T05:27:02.229Z,98340.45
2023-01-28T05:29:31.037Z,98339.42
2023-01-28T05:32:00.176Z,98339.11
2023-01-28T05:34:29.011Z,98341.92
2023-01-28T05:36:58.266Z,98344.79
2023-01-28T05:39:27.020Z,98347.30
2023-01-28T05:41:55.873Z,98348.75
2023-01-28T05:44:24.608Z,98350.63
2023-01-28T05:46:53.410Z,98352.95
2023-01-28T05:49:22.540Z,98355.14
2023-01-28T05:51:51.266Z,98360.53
2023-01-28T05:54:20.093Z,98361.80
2023-01-28T05:56:49.041Z,98365.54
2023-01-28T05:59:18.649Z,98371.67
2023-01-28T06:01:47.727Z,98374.63
2023-01-28T06:04:19.188Z,98374.85
2023-01-28T06:06:48.031Z,98379.84
2023-01-28T06:09:16.958Z,98384.57
2023-01-28T06:11:46.701Z,98387.69
2023-01-28T06:14:15.691Z,98390.15
2023-01-28T06:16:44.515Z,98390.96
2023-01-28T06:19:14.409Z,98394.29
2023-01-28T06:21:43.797Z,98397.34
2023-01-28T06:24:13.410Z,98397.41
2023-01-28T06:26:42.369Z,98400.62
2023-01-28T06:29:11.875Z,98401.45
2023-01-28T06:31:41.145Z,98405.25
2023-01-28T06:34:11.177Z,98407.79
2023-01-28T06:36:40.135Z,98409.63
2023-01-28T06:39:08.953Z,98412.83
2023-01-28T06:41:37.712Z,98419.90
2023-01-28T06:44:07.069Z,98419.30
2023-01-28T06:46:36.225Z,98422.79
2023-01-28T06:49:05.580Z,98419.63
2023-01-28T06:51:34.368Z,98424.57
2023-01-28T06:54:03.645Z,98428.05
2023-01-28T06:56:32.868Z,98434.73
2023-01-28T06:59:03.159Z,98437.81
2023-01-28T07:01:35.000Z,98440.11
2023-01-28T07:04:04.893Z,98445.20
2023-01-28T07:06:33.742Z,98453.57
2023-01-28T07:09:03.168Z,98460.30
2023-01-28T07:11:33.344Z,98459.58
2023-01-28T07:14:02.423Z,98463.08
2023-01-28T07:16:32.072Z,98466.37
2023-01-28T07:19:01.633Z,98472.52
2023-01-28T07:21:31.546Z,98474.10
2023-01-28T07:24:01.311Z,98475.57
2023-01-28T07:26:30.186Z,98471.82
2023-01-28T07:29:02.363Z,98475.12
2023-01-28T07:31:31.647Z,98478.48
2023-01-28T07:34:01.436Z,98485.04
2023-01-28T07:36:30.658Z,98481.23
2023-01-28T07:38:59.685Z,98485.46
2023-01-28T07:41:29.610Z,98491.95
2023-01-28T07:44:02.490Z,98497.84
2023-01-28T07:46:33.247Z,98501.96
2023-01-28T07:49:03.342Z,98510.50
2023-01-28T07:51:36.013Z,98512.05
2023-01-28T07:54:05.712Z,98512.39
2023-01-28T07:56:34.708Z,98509.08
2023-01-28T07:59:07.341Z,98506.80
2023-01-28T08:01:36.991Z,98512.58
2023-01-28T08:04:07.651Z,98515.65
2023-01-28T08:06:38.481Z,98522.39
2023-01-28T08:09:09.020Z,98518.10
2023-01-28T08:11:42.098Z,98523.11
2023-01-28T08:14:13.121Z,98521.18
2023-01-28T08:16:42.418Z,98524.64
2023-01-28T08:19:13.186Z,98524.35
2023-01-28T08:21:42.332Z,98527.73
2023-01-28T08:24:11.736Z,98527.32
2023-01-28T08:26:40.533Z,98527.49
2023-01-28T08:29:09.914Z,98529.94
2023-01-28T08:31:40.143Z,98536.96
2023-01-28T08:34:09.623Z,98537.38
2023-01-28T08:36:39.516Z,98536.39
2023-01-28T08:39:09.074Z,98537.90
2023-01-28T08:41:38.465Z,98539.65
2023-01-28T08:44:08.341Z,98540.29
2023-01-28T08:46:39.411Z,98543.33
2023-01-28T08:49:11.345Z,98543.67
2023-01-28T08:51:41.676Z,98549.44
2023-01-28T08:54:10.760Z,98549.77
2023-01-28T08:56:45.932Z,98549.44
2023-01-28T08:59:15.804Z,98547.89
2023-01-28T09:01:45.207Z,98547.36
2023-01-28T09:04:15.459Z,98550.55
2023-01-28T09:06:44.468Z,98544.51
2023-01-28T09:09:13.833Z,98545.52
2023-01-28T09:11:43.070Z,98552.67
2023-01-28T09:14:12.527Z,98555.33
2023-01-28T09:16:41.700Z,98563.33
2023-01-28T09:19:11.758Z,98567.18
2023-01-28T09:21:41.549Z,98569.23
2023-01-28T09:24:13.929Z,98570.15
2023-01-28T09:26:45.025Z,98571.30
2023-01-28T09:29:15.004Z,98573.88
2023-01-28T09:31:44.527Z,98573.76
2023-01-28T09:34:14.212Z,98573.40
2023-01-28T09:36:45.320Z,98576.52
2023-01-28T09:39:15.746Z,98579.48
2023-01-28T09:42:01.621Z,98586.06
2023-01-28T09:44:57.228Z,98584.06
2023-01-28T09:47:42.354Z,98580.20
2023-01-28T09:50:21.451Z,98577.75
2023-01-28T09:52:55.680Z,98578.88
2023-01-28T09:55:36.780Z,98578.78
2023-01-28T09:58:16.203Z,98576.05
2023-01-28T10:01:11.887Z,98573.24
2023-01-28T10:03:50.377Z,98569.98
2023-01-28T10:06:46.022Z,98568.34
2023-01-28T10:09:37.067Z,98566.20
2023-01-28T10:12:25.641Z,98563.59
2023-01-28T10:15:35.277Z,98560.77
2023-01-28T10:18:17.653Z,98559.44
2023-01-28T10:20:55.690Z,98560.66
2023-01-28T10:23:28.754Z,98563.77
2023-01-28T10:26:05.564Z,98558.14
2023-01-28T10:28:36.367Z,98559.63
2023-01-28T10:31:13.535Z,98555.80
2023-01-28T10:33:44.794Z,98554.53
2023-01-28T10:36:18.534Z,98553.46
2023-01-28T10:38:48.386Z,98548.41
2023-01-28T10:41:22.788Z,98545.36
2023-01-28T10:43:52.714Z,98540.10
2023-01-28T10:46:33.697Z,98538.68
2023-01-28T10:49:18.945Z,98536.90
2023-01-28T10:51:48.619Z,98534.36
2023-01-28T10:54:26.490Z,98535.85
2023-01-28T10:57:01.286Z,98538.23
2023-01-28T10:59:32.318Z,98539.11
2023-01-28T11:02:26.957Z,98540.02
2023-01-28T11:05:09.290Z,98543.86
2023-01-28T11:07:39.220Z,98536.44
2023-01-28T11:10:27.134Z,98537.56
2023-01-28T11:12:59.290Z,98531.68
2023-01-28T11:15:30.514Z,98529.48
2023-01-28T11:18:11.345Z,98528.27
2023-01-28T11:20:53.867Z,98529.27
2023-01-28T11:23:33.908Z,98536.98
2023-01-28T11:26:10.230Z,98533.81
2023-01-28T11:28:43.349Z,98534.48
2023-01-28T11:31:18.528Z,98534.16
2023-01-28T11:34:05.990Z,98533.59
2023-01-28T11:36:36.108Z,98527.35
2023-01-28T11:39:26.723Z,98522.71
2023-01-28T11:41:56.063Z,98518.30
2023-01-28T11:44:26.972Z,98516.11
2023-01-28T11:47:14.649Z,98514.76
2023-01-28T11:50:03.670Z,98508.39
2023-01-28T11:53:04.401Z,98515.92
2023-01-28T11:55:42.299Z,98514.70
2023-01-28T11:58:27.684Z,98512.51
2023-01-28T12:01:24.192Z,98508.75
2023-01-28T12:04:21.898Z,98507.33
2023-01-28T12:07:18.998Z,98506.67
2023-01-28T12:10:12.966Z,98506.48
2023-01-28T12:13:04.274Z,98504.84
2023-01-28T12:15:58.143Z,98508.29
2023-01-28T12:18:33.154Z,98508.63
2023-01-28T12:21:09.875Z,98504.50
2023-01-28T12:23:46.279Z,98500.80
2023-01-28T12:26:50.239Z,98498.69
2023-01-28T12:29:32.892Z,98490.86
2023-01-28T12:32:41.510Z,98480.63
2023-01-28T12:35:51.650Z,98483.30
2023-01-28T12:38:52.744Z,98483.31
2023-01-28T12:41:28.435Z,98482.90
2023-01-28T12:44:09.074Z,98485.61
2023-01-28T12:47:04.456Z,98487.06
2023-01-28T12:50:00.752Z,98490.73
2023-01-28T12:52:58.055Z,98489.40
2023-01-28T12:55:39.580Z,98488.14
2023-01-28T12:58:19.179Z,98484.13
2023-01-28T13:00:57.634Z,98488.51
2023-01-28T13:03:35.520Z,98484.33
2023-01-28T13:06:19.605Z,98483.86
2023-01-28T13:08:50.276Z,98482.20
2023-01-28T13:11:21.050Z,98472.71
2023-01-28T13:13:51.112Z,98468.98
2023-01-28T13:16:28.632Z,98467.55
2023-01-28T13:19:23.650Z,98475.33
2023-01-28T13:21:53.055Z,98484.64
2023-01-28T13:24:31.663Z,98486.07
2023-01-28T13:27:12.963Z,98486.83
2023-01-28T13:29:48.366Z,98489.64
2023-01-28T13:32:33.918Z,98490.31
2023-01-28T13:35:09.029Z,98488.29
2023-01-28T13:37:47.605Z,98497.69
2023-01-28T13:40:17.201Z,98493.96
2023-01-28T13:43:00.195Z,98500.68
2023-01-28T13:45:30.528Z,98504.19
2023-01-28T13:48:25.943Z,98505.15
2023-01-28T13:50:55.187Z,98511.58
2023-01-28T13:53:30.629Z,98514.39
2023-01-28T13:56:01.296Z,98514.54
2023-01-28T13:59:03.572Z,98518.48
2023-01-28T14:01:54.165Z,98522.04
2023-01-28T14:04:29.235Z,98518.66
2023-01-28T14:07:04.772Z,98518.52
2023-01-28T14:09:43.135Z,98522.80
2023-01-28T14:12:30.842Z,98527.25
2023-01-28T14:15:23.996Z,98526.54
2023-01-28T14:17:55.447Z,98530.51
2023-01-28T14:20:33.551Z,98532.54
2023-01-28T14:23:06.139Z,98536.67
2023-01-28T14:25:56.191Z,98535.21
2023-01-28T14:28:39.122Z,98541.13
2023-01-28T14:31:27.184Z,98534.79
2023-01-28T14:34:05.471Z,98536.37
2023-01-28T14:36:41.700Z,98544.80
2023-01-28T14:39:29.443Z,98545.48
2023-01-28T14:42:01.971Z,98553.32
2023-01-28T14:44:39.945Z,98560.11
2023-01-28T14:47:08.884Z,98563.35
2023-01-28T14:49:57.144Z,98566.42
2023-01-28T14:52:35.974Z,98573.76
2023-01-28T14:55:05.010Z,98579.67
2023-01-28T14:57:57.880Z,98585.11
2023-01-28T15:00:31.096Z,98591.27
2023-01-28T15:03:00.520Z,98593.21
2023-01-28T15:05:32.177Z,98597.94
2023-01-28T15:08:01.583Z,98600.81
2023-01-28T15:10:38.702Z,98602.98
2023-01-28T15:13:13.071Z,98604.62
2023-01-28T15:15:46.938Z,98605.99
2023-01-28T15:18:29.889Z,98612.41
2023-01-28T15:21:01.033Z,98612.73
2023-01-28T15:23:37.998Z,98614.29
2023-01-28T15:26:29.003Z,98616.77
2023-01-28T15:28:58.492Z,98624.11
2023-01-28T15:31:33.635Z,98629.52
2023-01-28T15:34:15.450Z,98632.21
2023-01-28T15:36:44.454Z,98634.89
2023-01-28T15:39:19.417Z,98636.23
2023-01-28T15:42:00.089Z,98635.36
2023-01-28T15:44:33.914Z,98644.44
2023-01-28T15:47:14.147Z,98646.81
2023-01-28T15:49:47.209Z,98651.09
2023-01-28T15:52:16.474Z,98653.29
2023-01-28T15:54:51.355Z,98657.00
2023-01-28T15:57:28.054Z,98659.92
2023-01-28T16:00:09.435Z,98668.30
2023-01-28T16:03:08.934Z,98669.29
2023-01-28T16:05:40.622Z,98671.21
2023-01-28T16:08:31.664Z,98673.55
2023-01-28T16:11:00.900Z,98678.48
2023-01-28T16:13:33.560Z,98678.72
2023-01-28T16:16:05.782Z,98683.92
2023-01-28T16:18:49.876Z,98687.43
2023-01-28T16:21:32.788Z,98692.33
2023-01-28T16:24:20.470Z,98696.99
2023-01-28T16:27:01.346Z,98701.96
2023-01-28T16:29:31.904Z,98705.65
2023-01-28T16:32:01.468Z,98715.14
2023-01-28T16:34:30.813Z,98717.42
2023-01-28T16:37:00.913Z,98723.30
2023-01-28T16:39:30.941Z,98729.21
2023-01-28T16:42:00.268Z,98733.53
2023-01-28T16:44:29.755Z,98740.52
2023-01-28T16:46:59.575Z,98741.80
2023-01-28T16:49:28.623Z,98741.89
2023-01-28T16:51:57.813Z,98747.30
2023-01-28T16:54:29.212Z,98750.99
2023-01-28T16:56:59.383Z,98750.55
2023-01-28T16:59:29.077Z,98752.36
2023-01-28T17:01:59.085Z,98755.69
2023-01-28T17:04:27.797Z,98760.39
2023-01-28T17:06:57.140Z,98760.04
2023-01-28T17:09:26.635Z,98771.74
2023-01-28T17:11:55.836Z,98771.84
2023-01-28T17:14:25.035Z,98772.42
2023-01-28T17:16:55.614Z,98778.02
2023-01-28T17:19:25.618Z,98778.32
2023-01-28T17:21:55.653Z,98786.77
2023-01-28T17:24:25.351Z,98783.77
2023-01-28T17:26:55.569Z,98782.14
2023-01-28T17:29:25.777Z,98783.48
2023-01-28T17:31:55.530Z,98787.01
2023-01-28T17:34:25.246Z,98789.88
2023-01-28T17:36:55.170Z,98796.70
2023-01-28T17:39:25.758Z,98801.80
2023-01-28T17:41:55.773Z,98806.46
2023-01-28T17:44:25.229Z,98805.08
2023-01-28T17:46:54.539Z,98811.07
2023-01-28T17:49:23.807Z,98810.15
2023-01-28T17:51:53.533Z,98810.65
2023-01-28T17:54:25.045Z,98818.32
2023-01-28T17:56:54.841Z,98819.31
2023-01-28T17:59:26.124Z,98814.92
2023-01-28T18:01:55.826Z,98816.85
2023-01-28T18:04:25.767Z,98819.69
2023-01-28T18:06:55.265Z,98821.48
2023-01-28T18:09:24.488Z,98830.92
2023-01-28T18:11:54.171Z,98827.66
2023-01-28T18:14:23.144Z,98832.42
2023-01-28T18:16:52.430Z,98837.98
2023-01-28T18:19:21.525Z,98837.93
2023-01-28T18:21:53.279Z,98843.77
2023-01-28T18:24:25.289Z,98851.56
2023-01-28T18:27:00.270Z,98847.72
2023-01-28T18:29:32.005Z,98855.33
2023-01-28T18:32:01.687Z,98855.46
2023-01-28T18:34:32.886Z,98860.41
2023-01-28T18:37:04.282Z,98855.73
2023-01-28T18:39:34.343Z,98860.88
2023-01-28T18:42:04.382Z,98867.09
2023-01-28T18:44:33.946Z,98869.45
2023-01-28T18:47:03.583Z,98868.17
2023-01-28T18:49:33.427Z,98874.68
2023-01-28T18:52:04.034Z,98875.67
2023-01-28T18:54:33.383Z,98876.52
2023-01-28T18:57:02.691Z,98880.14
2023-01-28T18:59:33.451Z,98886.30
2023-01-28T19:02:02.506Z,98889.73
2023-01-28T19:04:31.758Z,98894.60
2023-01-28T19:07:01.218Z,98903.20
2023-01-28T19:09:30.139Z,98907.52
2023-01-28T19:11:59.222Z,98913.31
2023-01-28T19:14:28.404Z,98918.73
2023-01-28T19:16:57.378Z,98925.35
2023-01-28T19:19:26.375Z,98927.58
2023-01-28T19:21:56.319Z,98932.71
2023-01-28T19:24:26.011Z,98936.01
2023-01-28T19:26:55.409Z,98932.00
2023-01-28T19:29:26.146Z,98934.42
2023-01-28T19:31:55.757Z,98936.02
2023-01-28T19:34:25.195Z,98935.52
2023-01-28T19:36:54.493Z,98936.46
2023-01-28T19:39:24.112Z,98939.38
2023-01-28T19:41:53.279Z,98936.44
2023-01-28T19:44:23.061Z,98935.30
2023-01-28T19:46:52.260Z,98938.92
2023-01-28T19:49:21.471Z,98937.08
2023-01-28T19:51:51.505Z,98939.24
2023-01-28T19:54:20.966Z,98942.48
2023-01-28T19:56:50.583Z,98947.15
2023-01-28T19:59:22.740Z,98944.31
2023-01-28T20:01:52.793Z,98945.36
2023-01-28T20:04:22.668Z,98944.94
2023-01-28T20:06:52.049Z,98945.98
2023-01-28T20:09:21.440Z,98948.77
2023-01-28T20:11:50.821Z,98944.34
2023-01-28T20:14:21.970Z,98951.23
2023-01-28T20:16:52.709Z,98948.80
2023-01-28T20:19:22.840Z,98954.85
2023-01-28T20:21:53.687Z,98960.81
2023-01-28T20:24:23.548Z,98962.00
2023-01-28T20:26:53.120Z,98965.04
2023-01-28T20:29:22.865Z,98963.73
2023-01-28T20:32:13.469Z,98970.61
2023-01-28T20:34:44.872Z,98980.88
2023-01-28T20:37:15.320Z,98980.38
2023-01-28T20:39:45.283Z,98988.55
2023-01-28T20:42:15.646Z,98988.20
2023-01-28T20:44:46.073Z,98988.59
2023-01-28T20:47:15.900Z,98993.62
2023-01-28T20:49:45.549Z,98995.85
2023-01-28T20:52:15.519Z,98996.22
2023-01-28T20:54:45.405Z,98999.84
2023-01-28T20:57:14.723Z,99002.90
2023-01-28T20:59:43.953Z,99011.02
2023-01-28T21:02:13.677Z,99012.12
2023-01-28T21:04:44.115Z,99013.09
2023-01-28T21:07:14.520Z,99014.42
2023-01-28T21:09:43.729Z,99012.20
2023-01-28T21:12:13.028Z,99014.98
2023-01-28T21:14:42.782Z,99015.78
2023-01-28T21:17:12.269Z,99021.22
2023-01-28T21:19:41.495Z,99020.43
2023-01-28T21:22:10.868Z,99021.88
2023-01-28T21:24:41.497Z,99025.90
2023-01-28T21:27:10.683Z,99028.41
2023-01-28T21:29:40.041Z,99028.98
2023-01-28T21:32:09.905Z,99033.09
2023-01-28T21:34:41.332Z,99034.33
2023-01-28T21:37:11.436Z,99036.23
2023-01-28T21:39:40.887Z,99038.62
2023-01-28T21:42:10.204Z,99042.41
2023-01-28T21:44:39.817Z,99039.83
2023-01-28T21:47:08.973Z,99043.13
2023-01-28T21:49:38.176Z,99045.26
2023-01-28T21:52:10.581Z,99045.64
2023-01-28T21:54:40.547Z,99047.82
2023-01-28T21:57:09.516Z,99049.82
2023-01-28T21:59:41.047Z,99051.41
2023-01-28T22:02:14.632Z,99054.48
2023-01-28T22:04:47.050Z,99055.15
2023-01-28T22:07:20.677Z,99051.92
2023-01-28T22:09:52.842Z,99048.53
2023-01-28T22:12:23.229Z,99051.27
2023-01-28T22:14:52.203Z,99060.21
2023-01-28T22:17:21.176Z,99059.63
2023-01-28T22:19:50.565Z,99060.41
2023-01-28T22:22:20.046Z,99061.87
2023-01-28T22:24:48.832Z,99061.91
2023-01-28T22:27:17.922Z,99061.27
2023-01-28T22:29:47.292Z,99063.07
2023-01-28T22:32:16.354Z,99065.78
2023-01-28T22:34:46.929Z,99071.91
2023-01-28T22:37:16.002Z,99070.64
2023-01-28T22:39:44.863Z,99071.45
2023-01-28T22:42:13.707Z,99073.73
2023-01-28T22:44:42.681Z,99073.58
2023-01-28T22:47:11.961Z,99074.73
2023-01-28T22:49:41.480Z,99071.82
2023-01-28T22:52:10.779Z,99070.98
2023-01-28T22:54:40.660Z,99068.81
2023-01-28T22:57:09.479Z,99069.01
2023-01-28T22:59:41.937Z,99069.84
2023-01-28T23:02:12.247Z,99068.65
2023-01-28T23:04:41.033Z,99071.15
2023-01-28T23:07:09.808Z,99069.08
2023-01-28T23:09:39.022Z,99071.52
2023-01-28T23:12:08.550Z,99073.35
2023-01-28T23:14:56.089Z,99083.86
2023-01-28T23:17:43.320Z,99080.93
2023-01-28T23:20:30.927Z,99081.05
2023-01-28T23:23:18.346Z,99083.77
2023-01-28T23:25:49.526Z,99082.39
2023-01-28T23:28:18.293Z,99083.39
2023-01-28T23:30:46.876Z,99083.83
2023-01-28T23:33:16.170Z,99082.25
2023-01-28T23:35:45.125Z,99086.29
2023-01-28T23:38:13.985Z,99087.00
2023-01-28T23:40:42.976Z,99088.32
2023-01-28T23:43:13.635Z,99088.54
2023-01-28T23:45:43.527Z,99096.32
2023-01-28T23:48:13.223Z,99092.88
2023-01-28T23:50:42.817Z,99095.33
2023-01-28T23:53:13.915Z,99095.21
2023-01-28T23:55:43.225Z,99097.60
2023-01-28T23:58:13.044Z,99103.65
